sensor_id;sensor_type;location;lat;lon;timestamp;P1;durP1;ratioP1;P2;durP2;ratioP2
18194;SDS011;9223;50.988;3.162;2022-07-29T00:04:14;3.80;;;2.50;;
18194;SDS011;9223;50.988;3.162;2022-07-29T00:10:18;2.63;;;2.30;;
18194;SDS011;9223;50.988;3.162;2022-07-29T00:16:22;3.25;;;2.40;;
18194;SDS011;9223;50.988;3.162;2022-07-29T00:22:27;2.47;;;2.28;;
18194;SDS011;9223;50.988;3.162;2022-07-29T00:28:30;2.30;;;2.10;;
18194;SDS011;9223;50.988;3.162;2022-07-29T00:34:33;3.67;;;2.40;;
18194;SDS011;9223;50.988;3.162;2022-07-29T00:40:56;2.85;;;2.40;;
18194;SDS011;9223;50.988;3.162;2022-07-29T00:46:59;3.40;;;2.30;;
18194;SDS011;9223;50.988;3.162;2022-07-29T00:53:03;3.67;;;2.85;;
18194;SDS011;9223;50.988;3.162;2022-07-29T00:59:07;4.97;;;3.03;;
18194;SDS011;9223;50.988;3.162;2022-07-29T01:05:11;3.38;;;2.47;;
18194;SDS011;9223;50.988;3.162;2022-07-29T01:11:15;3.40;;;2.85;;
18194;SDS011;9223;50.988;3.162;2022-07-29T01:17:21;4.47;;;3.42;;
18194;SDS011;9223;50.988;3.162;2022-07-29T01:29:35;4.60;;;3.50;;
18194;SDS011;9223;50.988;3.162;2022-07-29T01:35:41;5.38;;;3.72;;
18194;SDS011;9223;50.988;3.162;2022-07-29T01:41:50;7.68;;;3.88;;
18194;SDS011;9223;50.988;3.162;2022-07-29T01:48:00;7.25;;;3.63;;
18194;SDS011;9223;50.988;3.162;2022-07-29T01:54:06;4.82;;;3.65;;
18194;SDS011;9223;50.988;3.162;2022-07-29T02:00:12;4.18;;;3.70;;
18194;SDS011;9223;50.988;3.162;2022-07-29T02:06:17;6.47;;;3.50;;
18194;SDS011;9223;50.988;3.162;2022-07-29T02:12:21;4.70;;;3.90;;
18194;SDS011;9223;50.988;3.162;2022-07-29T02:18:26;5.13;;;3.40;;
18194;SDS011;9223;50.988;3.162;2022-07-29T02:24:32;4.45;;;3.70;;
18194;SDS011;9223;50.988;3.162;2022-07-29T02:30:36;8.73;;;3.90;;
18194;SDS011;9223;50.988;3.162;2022-07-29T02:36:42;6.05;;;3.90;;
18194;SDS011;9223;50.988;3.162;2022-07-29T02:42:51;4.85;;;3.78;;
18194;SDS011;9223;50.988;3.162;2022-07-29T02:48:55;5.88;;;3.95;;
18194;SDS011;9223;50.988;3.162;2022-07-29T02:55:00;4.22;;;3.83;;
18194;SDS011;9223;50.988;3.162;2022-07-29T03:01:08;4.68;;;3.92;;
18194;SDS011;9223;50.988;3.162;2022-07-29T03:07:21;5.93;;;4.18;;
18194;SDS011;9223;50.988;3.162;2022-07-29T03:13:24;5.45;;;4.20;;
18194;SDS011;9223;50.988;3.162;2022-07-29T03:19:30;4.35;;;3.88;;
18194;SDS011;9223;50.988;3.162;2022-07-29T03:25:34;5.03;;;4.00;;
18194;SDS011;9223;50.988;3.162;2022-07-29T03:31:37;4.57;;;4.05;;
18194;SDS011;9223;50.988;3.162;2022-07-29T03:37:45;5.00;;;4.32;;
18194;SDS011;9223;50.988;3.162;2022-07-29T03:43:49;6.18;;;4.53;;
18194;SDS011;9223;50.988;3.162;2022-07-29T03:49:54;6.88;;;4.47;;
18194;SDS011;9223;50.988;3.162;2022-07-29T03:56:01;6.07;;;4.38;;
18194;SDS011;9223;50.988;3.162;2022-07-29T04:02:05;5.43;;;4.68;;
18194;SDS011;9223;50.988;3.162;2022-07-29T04:08:09;5.57;;;4.55;;
18194;SDS011;9223;50.988;3.162;2022-07-29T04:14:14;5.50;;;4.38;;
18194;SDS011;9223;50.988;3.162;2022-07-29T04:20:18;5.20;;;4.38;;
18194;SDS011;9223;50.988;3.162;2022-07-29T04:26:22;7.75;;;4.50;;
18194;SDS011;9223;50.988;3.162;2022-07-29T04:32:26;5.45;;;4.40;;
18194;SDS011;9223;50.988;3.162;2022-07-29T04:38:30;6.72;;;4.80;;
18194;SDS011;9223;50.988;3.162;2022-07-29T04:44:33;5.88;;;4.63;;
18194;SDS011;9223;50.988;3.162;2022-07-29T04:50:41;5.22;;;4.30;;
18194;SDS011;9223;50.988;3.162;2022-07-29T04:56:46;6.97;;;4.28;;
18194;SDS011;9223;50.988;3.162;2022-07-29T05:02:50;5.07;;;4.03;;
18194;SDS011;9223;50.988;3.162;2022-07-29T05:08:56;6.72;;;4.55;;
18194;SDS011;9223;50.988;3.162;2022-07-29T05:14:59;4.28;;;3.80;;
18194;SDS011;9223;50.988;3.162;2022-07-29T05:21:03;4.38;;;3.97;;
18194;SDS011;9223;50.988;3.162;2022-07-29T05:27:07;6.05;;;4.00;;
18194;SDS011;9223;50.988;3.162;2022-07-29T05:33:11;6.03;;;3.75;;
18194;SDS011;9223;50.988;3.162;2022-07-29T05:39:35;4.63;;;3.53;;
18194;SDS011;9223;50.988;3.162;2022-07-29T05:45:52;4.82;;;3.50;;
18194;SDS011;9223;50.988;3.162;2022-07-29T05:51:55;4.55;;;3.75;;
18194;SDS011;9223;50.988;3.162;2022-07-29T05:57:59;5.68;;;3.55;;
18194;SDS011;9223;50.988;3.162;2022-07-29T06:04:04;6.38;;;3.80;;
18194;SDS011;9223;50.988;3.162;2022-07-29T06:10:07;6.97;;;4.20;;
18194;SDS011;9223;50.988;3.162;2022-07-29T06:16:11;4.90;;;3.60;;
18194;SDS011;9223;50.988;3.162;2022-07-29T06:22:31;4.90;;;3.45;;
18194;SDS011;9223;50.988;3.162;2022-07-29T06:28:35;9.23;;;3.40;;
18194;SDS011;9223;50.988;3.162;2022-07-29T06:34:38;3.95;;;3.22;;
18194;SDS011;9223;50.988;3.162;2022-07-29T06:40:45;7.30;;;3.50;;
18194;SDS011;9223;50.988;3.162;2022-07-29T06:47:05;4.55;;;3.30;;
18194;SDS011;9223;50.988;3.162;2022-07-29T06:53:09;7.28;;;3.67;;
18194;SDS011;9223;50.988;3.162;2022-07-29T06:59:14;4.97;;;3.53;;
18194;SDS011;9223;50.988;3.162;2022-07-29T07:05:18;3.63;;;3.33;;
18194;SDS011;9223;50.988;3.162;2022-07-29T07:11:21;5.85;;;3.30;;
18194;SDS011;9223;50.988;3.162;2022-07-29T07:17:26;5.10;;;3.88;;
18194;SDS011;9223;50.988;3.162;2022-07-29T07:23:29;3.72;;;3.42;;
18194;SDS011;9223;50.988;3.162;2022-07-29T07:29:33;8.07;;;4.03;;
18194;SDS011;9223;50.988;3.162;2022-07-29T07:35:38;5.93;;;3.85;;
18194;SDS011;9223;50.988;3.162;2022-07-29T07:41:42;4.07;;;3.67;;
18194;SDS011;9223;50.988;3.162;2022-07-29T07:47:45;3.40;;;3.10;;
18194;SDS011;9223;50.988;3.162;2022-07-29T07:53:50;6.00;;;3.60;;
18194;SDS011;9223;50.988;3.162;2022-07-29T07:59:54;4.65;;;3.53;;
18194;SDS011;9223;50.988;3.162;2022-07-29T08:05:57;3.70;;;3.40;;
18194;SDS011;9223;50.988;3.162;2022-07-29T08:12:03;5.00;;;3.50;;
18194;SDS011;9223;50.988;3.162;2022-07-29T08:18:07;5.35;;;3.47;;
18194;SDS011;9223;50.988;3.162;2022-07-29T08:24:11;4.85;;;2.40;;
18194;SDS011;9223;50.988;3.162;2022-07-29T08:30:33;6.90;;;3.80;;
18194;SDS011;9223;50.988;3.162;2022-07-29T08:36:37;4.55;;;3.90;;
18194;SDS011;9223;50.988;3.162;2022-07-29T08:42:40;4.40;;;3.03;;
18194;SDS011;9223;50.988;3.162;2022-07-29T08:48:45;3.72;;;2.75;;
18194;SDS011;9223;50.988;3.162;2022-07-29T08:54:48;4.65;;;2.70;;
18194;SDS011;9223;50.988;3.162;2022-07-29T09:00:53;7.38;;;3.55;;
18194;SDS011;9223;50.988;3.162;2022-07-29T09:07:00;4.28;;;3.00;;
18194;SDS011;9223;50.988;3.162;2022-07-29T09:13:04;6.35;;;3.15;;
18194;SDS011;9223;50.988;3.162;2022-07-29T09:19:10;4.03;;;2.40;;
18194;SDS011;9223;50.988;3.162;2022-07-29T09:25:33;7.07;;;3.03;;
18194;SDS011;9223;50.988;3.162;2022-07-29T09:31:38;6.03;;;2.50;;
18194;SDS011;9223;50.988;3.162;2022-07-29T09:37:42;3.58;;;2.30;;
18194;SDS011;9223;50.988;3.162;2022-07-29T09:43:54;3.05;;;2.13;;
18194;SDS011;9223;50.988;3.162;2022-07-29T09:49:58;4.65;;;3.20;;
18194;SDS011;9223;50.988;3.162;2022-07-29T09:56:02;4.88;;;2.25;;
18194;SDS011;9223;50.988;3.162;2022-07-29T10:02:12;5.10;;;2.65;;
18194;SDS011;9223;50.988;3.162;2022-07-29T10:08:24;2.78;;;1.80;;
18194;SDS011;9223;50.988;3.162;2022-07-29T10:14:28;3.03;;;2.20;;
18194;SDS011;9223;50.988;3.162;2022-07-29T10:20:34;3.95;;;2.22;;
18194;SDS011;9223;50.988;3.162;2022-07-29T10:26:37;2.22;;;1.60;;
18194;SDS011;9223;50.988;3.162;2022-07-29T10:32:54;2.15;;;1.80;;
18194;SDS011;9223;50.988;3.162;2022-07-29T10:39:03;4.38;;;2.92;;
18194;SDS011;9223;50.988;3.162;2022-07-29T10:45:09;4.10;;;2.67;;
18194;SDS011;9223;50.988;3.162;2022-07-29T10:51:15;4.00;;;2.42;;
18194;SDS011;9223;50.988;3.162;2022-07-29T10:57:21;6.13;;;3.13;;
18194;SDS011;9223;50.988;3.162;2022-07-29T11:03:47;7.13;;;2.83;;
18194;SDS011;9223;50.988;3.162;2022-07-29T11:16:21;6.00;;;2.80;;
18194;SDS011;9223;50.988;3.162;2022-07-29T11:22:32;3.75;;;2.83;;
18194;SDS011;9223;50.988;3.162;2022-07-29T11:28:36;4.57;;;2.80;;
18194;SDS011;9223;50.988;3.162;2022-07-29T11:34:43;2.10;;;1.88;;
18194;SDS011;9223;50.988;3.162;2022-07-29T11:47:05;3.78;;;2.10;;
18194;SDS011;9223;50.988;3.162;2022-07-29T11:53:12;3.45;;;2.50;;
18194;SDS011;9223;50.988;3.162;2022-07-29T11:59:16;3.20;;;2.55;;
18194;SDS011;9223;50.988;3.162;2022-07-29T12:05:20;5.20;;;3.03;;
18194;SDS011;9223;50.988;3.162;2022-07-29T12:11:38;4.53;;;2.58;;
18194;SDS011;9223;50.988;3.162;2022-07-29T12:17:45;5.07;;;2.35;;
18194;SDS011;9223;50.988;3.162;2022-07-29T12:23:51;3.53;;;2.78;;
18194;SDS011;9223;50.988;3.162;2022-07-29T12:30:04;3.38;;;2.78;;
18194;SDS011;9223;50.988;3.162;2022-07-29T12:36:09;2.47;;;1.92;;
18194;SDS011;9223;50.988;3.162;2022-07-29T12:42:18;2.35;;;1.90;;
18194;SDS011;9223;50.988;3.162;2022-07-29T12:48:34;3.95;;;2.08;;
18194;SDS011;9223;50.988;3.162;2022-07-29T12:54:46;2.88;;;2.13;;
18194;SDS011;9223;50.988;3.162;2022-07-29T13:00:58;7.88;;;2.40;;
18194;SDS011;9223;50.988;3.162;2022-07-29T13:07:03;2.55;;;1.80;;
18194;SDS011;9223;50.988;3.162;2022-07-29T13:13:09;2.95;;;2.20;;
18194;SDS011;9223;50.988;3.162;2022-07-29T13:19:13;1.63;;;1.52;;
18194;SDS011;9223;50.988;3.162;2022-07-29T13:25:24;4.00;;;1.90;;
18194;SDS011;9223;50.988;3.162;2022-07-29T13:31:28;4.68;;;3.00;;
18194;SDS011;9223;50.988;3.162;2022-07-29T13:37:32;2.72;;;2.35;;
18194;SDS011;9223;50.988;3.162;2022-07-29T13:43:37;2.28;;;1.80;;
18194;SDS011;9223;50.988;3.162;2022-07-29T13:49:40;4.78;;;3.03;;
18194;SDS011;9223;50.988;3.162;2022-07-29T13:55:44;5.78;;;2.60;;
18194;SDS011;9223;50.988;3.162;2022-07-29T14:01:50;3.75;;;3.00;;
18194;SDS011;9223;50.988;3.162;2022-07-29T14:07:53;2.85;;;2.25;;
18194;SDS011;9223;50.988;3.162;2022-07-29T14:13:56;4.80;;;2.17;;
18194;SDS011;9223;50.988;3.162;2022-07-29T14:20:01;3.05;;;2.42;;
18194;SDS011;9223;50.988;3.162;2022-07-29T14:26:05;3.20;;;2.55;;
18194;SDS011;9223;50.988;3.162;2022-07-29T14:32:14;2.65;;;2.28;;
18194;SDS011;9223;50.988;3.162;2022-07-29T14:38:19;5.35;;;3.33;;
18194;SDS011;9223;50.988;3.162;2022-07-29T14:44:27;2.55;;;2.35;;
18194;SDS011;9223;50.988;3.162;2022-07-29T14:50:32;3.35;;;1.77;;
18194;SDS011;9223;50.988;3.162;2022-07-29T14:56:37;5.30;;;2.90;;
18194;SDS011;9223;50.988;3.162;2022-07-29T15:02:47;6.05;;;2.88;;
18194;SDS011;9223;50.988;3.162;2022-07-29T15:09:02;2.70;;;2.10;;
18194;SDS011;9223;50.988;3.162;2022-07-29T15:15:09;3.17;;;2.03;;
18194;SDS011;9223;50.988;3.162;2022-07-29T15:21:13;2.60;;;2.30;;
18194;SDS011;9223;50.988;3.162;2022-07-29T15:27:16;6.18;;;3.22;;
18194;SDS011;9223;50.988;3.162;2022-07-29T15:33:21;2.15;;;1.88;;
18194;SDS011;9223;50.988;3.162;2022-07-29T15:39:25;3.63;;;2.80;;
18194;SDS011;9223;50.988;3.162;2022-07-29T15:45:28;3.60;;;3.10;;
18194;SDS011;9223;50.988;3.162;2022-07-29T15:51:35;3.30;;;2.20;;
18194;SDS011;9223;50.988;3.162;2022-07-29T15:57:38;3.30;;;2.85;;
18194;SDS011;9223;50.988;3.162;2022-07-29T16:03:42;5.85;;;2.53;;
18194;SDS011;9223;50.988;3.162;2022-07-29T16:09:48;2.53;;;2.05;;
18194;SDS011;9223;50.988;3.162;2022-07-29T16:15:53;4.75;;;2.40;;
18194;SDS011;9223;50.988;3.162;2022-07-29T16:22:03;4.32;;;2.30;;
18194;SDS011;9223;50.988;3.162;2022-07-29T16:28:07;3.47;;;2.70;;
18194;SDS011;9223;50.988;3.162;2022-07-29T16:34:11;5.93;;;3.50;;
18194;SDS011;9223;50.988;3.162;2022-07-29T16:40:14;3.90;;;2.95;;
18194;SDS011;9223;50.988;3.162;2022-07-29T16:46:19;3.40;;;2.70;;
18194;SDS011;9223;50.988;3.162;2022-07-29T16:52:26;5.45;;;2.83;;
18194;SDS011;9223;50.988;3.162;2022-07-29T16:58:29;2.45;;;1.55;;
18194;SDS011;9223;50.988;3.162;2022-07-29T17:04:34;3.10;;;2.42;;
18194;SDS011;9223;50.988;3.162;2022-07-29T17:10:38;3.17;;;2.33;;
18194;SDS011;9223;50.988;3.162;2022-07-29T17:16:41;4.45;;;3.08;;
18194;SDS011;9223;50.988;3.162;2022-07-29T17:23:03;4.32;;;2.05;;
18194;SDS011;9223;50.988;3.162;2022-07-29T17:29:06;2.67;;;1.67;;
18194;SDS011;9223;50.988;3.162;2022-07-29T17:35:11;2.70;;;2.10;;
18194;SDS011;9223;50.988;3.162;2022-07-29T17:41:36;2.38;;;1.73;;
18194;SDS011;9223;50.988;3.162;2022-07-29T17:47:41;4.22;;;2.00;;
18194;SDS011;9223;50.988;3.162;2022-07-29T17:53:45;3.92;;;2.17;;
18194;SDS011;9223;50.988;3.162;2022-07-29T17:59:50;5.07;;;1.90;;
18194;SDS011;9223;50.988;3.162;2022-07-29T18:05:54;3.55;;;2.50;;
18194;SDS011;9223;50.988;3.162;2022-07-29T18:12:00;3.70;;;2.13;;
18194;SDS011;9223;50.988;3.162;2022-07-29T18:18:05;2.75;;;1.65;;
18194;SDS011;9223;50.988;3.162;2022-07-29T18:24:10;3.25;;;2.08;;
18194;SDS011;9223;50.988;3.162;2022-07-29T18:30:13;4.32;;;2.35;;
18194;SDS011;9223;50.988;3.162;2022-07-29T18:36:18;2.88;;;2.53;;
18194;SDS011;9223;50.988;3.162;2022-07-29T18:42:22;4.25;;;2.45;;
18194;SDS011;9223;50.988;3.162;2022-07-29T18:48:25;3.70;;;2.15;;
18194;SDS011;9223;50.988;3.162;2022-07-29T18:54:30;6.15;;;1.92;;
18194;SDS011;9223;50.988;3.162;2022-07-29T19:00:33;2.42;;;1.73;;
18194;SDS011;9223;50.988;3.162;2022-07-29T19:06:37;4.15;;;2.10;;
18194;SDS011;9223;50.988;3.162;2022-07-29T19:12:42;4.10;;;1.92;;
18194;SDS011;9223;50.988;3.162;2022-07-29T19:18:45;5.10;;;2.42;;
18194;SDS011;9223;50.988;3.162;2022-07-29T19:24:49;4.38;;;1.90;;
18194;SDS011;9223;50.988;3.162;2022-07-29T19:30:55;2.95;;;2.47;;
18194;SDS011;9223;50.988;3.162;2022-07-29T19:36:59;7.57;;;2.50;;
18194;SDS011;9223;50.988;3.162;2022-07-29T19:43:04;5.40;;;3.30;;
18194;SDS011;9223;50.988;3.162;2022-07-29T19:49:29;5.32;;;3.08;;
18194;SDS011;9223;50.988;3.162;2022-07-29T19:55:37;6.50;;;3.42;;
18194;SDS011;9223;50.988;3.162;2022-07-29T20:01:42;7.60;;;3.40;;
18194;SDS011;9223;50.988;3.162;2022-07-29T20:07:47;7.57;;;3.92;;
18194;SDS011;9223;50.988;3.162;2022-07-29T20:13:50;7.32;;;3.97;;
18194;SDS011;9223;50.988;3.162;2022-07-29T20:19:54;6.07;;;3.60;;
18194;SDS011;9223;50.988;3.162;2022-07-29T20:26:01;4.95;;;3.72;;
18194;SDS011;9223;50.988;3.162;2022-07-29T20:32:09;5.47;;;3.65;;
18194;SDS011;9223;50.988;3.162;2022-07-29T20:38:13;7.50;;;3.90;;
18194;SDS011;9223;50.988;3.162;2022-07-29T20:44:20;8.45;;;3.83;;
18194;SDS011;9223;50.988;3.162;2022-07-29T20:50:24;5.65;;;4.00;;
18194;SDS011;9223;50.988;3.162;2022-07-29T20:56:28;5.10;;;3.58;;
18194;SDS011;9223;50.988;3.162;2022-07-29T21:02:33;5.80;;;4.32;;
18194;SDS011;9223;50.988;3.162;2022-07-29T21:08:37;6.10;;;4.50;;
18194;SDS011;9223;50.988;3.162;2022-07-29T21:14:40;8.90;;;4.88;;
18194;SDS011;9223;50.988;3.162;2022-07-29T21:20:49;5.95;;;5.13;;
18194;SDS011;9223;50.988;3.162;2022-07-29T21:26:53;11.75;;;5.70;;
18194;SDS011;9223;50.988;3.162;2022-07-29T21:33:22;4.97;;;4.47;;
18194;SDS011;9223;50.988;3.162;2022-07-29T21:39:27;5.40;;;4.32;;
18194;SDS011;9223;50.988;3.162;2022-07-29T21:45:30;7.00;;;3.95;;
18194;SDS011;9223;50.988;3.162;2022-07-29T21:51:33;8.25;;;4.85;;
18194;SDS011;9223;50.988;3.162;2022-07-29T21:57:38;7.15;;;4.93;;
18194;SDS011;9223;50.988;3.162;2022-07-29T22:03:42;6.55;;;4.95;;
18194;SDS011;9223;50.988;3.162;2022-07-29T22:09:45;5.65;;;4.35;;
18194;SDS011;9223;50.988;3.162;2022-07-29T22:15:50;7.13;;;4.78;;
18194;SDS011;9223;50.988;3.162;2022-07-29T22:21:53;7.18;;;4.78;;
18194;SDS011;9223;50.988;3.162;2022-07-29T22:27:57;6.65;;;4.93;;
18194;SDS011;9223;50.988;3.162;2022-07-29T22:34:01;8.13;;;5.28;;
18194;SDS011;9223;50.988;3.162;2022-07-29T22:40:11;6.82;;;5.07;;
18194;SDS011;9223;50.988;3.162;2022-07-29T22:46:15;7.00;;;5.13;;
18194;SDS011;9223;50.988;3.162;2022-07-29T22:52:20;7.80;;;5.78;;
18194;SDS011;9223;50.988;3.162;2022-07-29T22:58:24;6.25;;;5.05;;
18194;SDS011;9223;50.988;3.162;2022-07-29T23:04:28;6.53;;;5.50;;
18194;SDS011;9223;50.988;3.162;2022-07-29T23:10:33;7.03;;;5.15;;
18194;SDS011;9223;50.988;3.162;2022-07-29T23:16:36;7.53;;;5.45;;
18194;SDS011;9223;50.988;3.162;2022-07-29T23:22:40;5.00;;;4.60;;
18194;SDS011;9223;50.988;3.162;2022-07-29T23:28:45;9.13;;;5.65;;
18194;SDS011;9223;50.988;3.162;2022-07-29T23:34:49;7.68;;;6.15;;
18194;SDS011;9223;50.988;3.162;2022-07-29T23:40:52;8.43;;;5.78;;
18194;SDS011;9223;50.988;3.162;2022-07-29T23:46:57;5.70;;;5.20;;
18194;SDS011;9223;50.988;3.162;2022-07-29T23:53:01;7.78;;;6.15;;
18194;SDS011;9223;50.988;3.162;2022-07-29T23:59:04;6.72;;;5.72;;
